Time;durP1;ratioP1;P1;durP2;ratioP2;P2;SDS_P1;SDS_P2;PMS_P1;PMS_P2;Temp;Humidity;BMP_temperature;BMP_pressure;BME280_temperature;BME280_humidity;BME280_pressure;Samples;Min_cycle;Max_cycle;Signal;HPM_P1;HPM_P2
2024/03/19 00:00:38;;;;;;;;;;;;;;;;;;4877725;29;19961;-54
2024/03/19 00:03:04;;;;;;;;;;;;;;;;;;4877048;29;19912;-53
2024/03/19 00:05:30;;;;;;;;;;;;;;;;;;4877987;29;20024;-54
2024/03/19 00:07:56;;;;;;;;;;;;;;;;;;4877301;29;20057;-56
2024/03/19 00:10:22;;;;;;;;;;;;;;;;;;4876505;29;19966;-56
2024/03/19 00:12:48;;;;;;;;;;;;;;;;;;4876932;29;19981;-56
2024/03/19 00:15:14;;;;;;;;;;;;;;;;;;4877739;29;19950;-56
2024/03/19 00:17:40;;;;;;;;;;;;;;;;;;4876492;29;19947;-57
2024/03/19 00:20:06;;;;;;;;;;;;;;;;;;4873540;29;20015;-56
2024/03/19 00:22:32;;;;;;;;;;;;;;;;;;4876233;29;20386;-56
2024/03/19 00:24:58;;;;;;;;;;;;;;;;;;4877055;29;19915;-57
2024/03/19 00:27:24;;;;;;;;;;;;;;;;;;4870009;29;19948;-56
2024/03/19 00:29:50;;;;;;;;;;;;;;;;;;4857847;29;20468;-56
2024/03/19 00:32:15;;;;;;;;;;;;;;;;;;4858210;29;19940;-56
2024/03/19 00:34:41;;;;;;;;;;;;;;;;;;4857217;29;19996;-56
2024/03/19 00:37:07;;;;;;;;;;;;;;;;;;4862492;29;19956;-56
2024/03/19 00:39:33;;;;;;;;;;;;;;;;;;4859729;29;20387;-56
2024/03/19 00:41:59;;;;;;;;;;;;;;;;;;4857624;29;20361;-56
2024/03/19 00:44:25;;;;;;;;;;;;;;;;;;4855426;29;19951;-55
2024/03/19 00:46:51;;;;;;;;;;;;;;;;;;4857452;29;19951;-55
2024/03/19 00:49:17;;;;;;;;;;;;;;;;;;4857518;29;19986;-56
2024/03/19 00:51:43;;;;;;;;;;;;;;;;;;4857793;29;19915;-56
2024/03/19 00:54:09;;;;;;;;;;;;;;;;;;4856216;29;19916;-56
2024/03/19 00:56:35;;;;;;;;;;;;;;;;;;4856944;29;19951;-54
2024/03/19 00:59:02;;;;;;;;;;;;;;;;;;4857191;29;19920;-53
2024/03/19 01:01:28;;;;;;;;;;;;;;;;;;4856452;29;19962;-53
2024/03/19 01:03:54;;;;;;;;;;;;;;;;;;4856968;29;20392;-54
2024/03/19 01:06:19;;;;;;;;;;;;;;;;;;4857197;29;19911;-56
2024/03/19 01:08:45;;;;;;;;;;;;;;;;;;4856346;29;19922;-56
2024/03/19 01:11:11;;;;;;;;;;;;;;;;;;4856868;29;19951;-56
2024/03/19 01:13:39;;;;;;;;;;;;;;;;;;4857016;29;19919;-57
2024/03/19 01:16:05;;;;;;;;;;;;;;;;;;4856424;29;19955;-56
2024/03/19 01:18:31;;;;;;;;;;;;;;;;;;4857713;29;19962;-59
2024/03/19 01:20:57;;;;;;;;;;;;;;;;;;4858168;29;20355;-59
2024/03/19 01:23:22;;;;;;;;;;;;;;;;;;4856490;29;19916;-60
2024/03/19 01:25:48;;;;;;;;;;;;;;;;;;4861623;29;20408;-59
2024/03/19 01:28:15;;;;;;;;;;;;;;;;;;4870755;29;19952;-60
2024/03/19 01:30:41;;;;;;;;;;;;;;;;;;4875439;29;19915;-60
2024/03/19 01:33:07;;;;;;;;;;;;;;;;;;4877366;29;19961;-57
2024/03/19 01:35:33;;;;;;;;;;;;;;;;;;4875962;29;19951;-60
2024/03/19 01:37:59;;;;;;;;;;;;;;;;;;4874816;29;20411;-58
2024/03/19 01:40:26;;;;;;;;;;;;;;;;;;4875994;29;20329;-60
2024/03/19 01:42:51;;;;;;;;;;;;;;;;;;4881159;29;19918;-60
2024/03/19 01:45:22;;;;;;;;;;;;;;;;;;4878718;29;19916;-56
2024/03/19 01:47:48;;;;;;;;;;;;;;;;;;4881037;29;19918;-60
2024/03/19 01:50:14;;;;;;;;;;;;;;;;;;4875213;29;20038;-58
2024/03/19 01:52:40;;;;;;;;;;;;;;;;;;4874957;29;19975;-60
2024/03/19 01:55:06;;;;;;;;;;;;;;;;;;4877448;29;19952;-60
2024/03/19 01:57:32;;;;;;;;;;;;;;;;;;4879369;29;19939;-60
2024/03/19 01:59:58;;;;;;;;;;;;;;;;;;4875441;29;19959;-59
2024/03/19 02:02:24;;;;;;;;;;;;;;;;;;4876170;29;20387;-58
2024/03/19 02:04:50;;;;;;;;;;;;;;;;;;4875425;29;20022;-60
2024/03/19 02:07:16;;;;;;;;;;;;;;;;;;4879812;29;19959;-52
2024/03/19 02:09:41;;;;;;;;;;;;;;;;;;4874279;29;19950;-52
2024/03/19 02:12:07;;;;;;;;;;;;;;;;;;4881340;29;19965;-53
2024/03/19 02:14:34;;;;;;;;;;;;;;;;;;4877720;29;19912;-51
2024/03/19 02:17:01;;;;;;;;;;;;;;;;;;4874632;29;20422;-53
2024/03/19 02:19:28;;;;;;;;;;;;;;;;;;4877752;29;19911;-52
2024/03/19 02:21:54;;;;;;;;;;;;;;;;;;4873772;29;19938;-56
2024/03/19 02:24:20;;;;;;;;;;;;;;;;;;4870111;29;20395;-56
2024/03/19 02:26:46;;;;;;;;;;;;;;;;;;4877392;29;20011;-56
2024/03/19 02:29:12;;;;;;;;;;;;;;;;;;4874638;29;20002;-56
2024/03/19 02:31:38;;;;;;;;;;;;;;;;;;4874476;29;19958;-56
2024/03/19 02:34:05;;;;;;;;;;;;;;;;;;4873483;29;19916;-56
2024/03/19 02:36:30;;;;;;;;;;;;;;;;;;4875664;29;20459;-56
2024/03/19 02:38:56;;;;;;;;;;;;;;;;;;4878194;29;20049;-56
2024/03/19 02:41:22;;;;;;;;;;;;;;;;;;4877349;29;19958;-56
2024/03/19 02:43:49;;;;;;;;;;;;;;;;;;4877912;29;19958;-56
2024/03/19 02:46:14;;;;;;;;;;;;;;;;;;4877765;29;19921;-56
2024/03/19 02:48:40;;;;;;;;;;;;;;;;;;4878784;29;20399;-57
2024/03/19 02:51:06;;;;;;;;;;;;;;;;;;4883486;29;20002;-56
2024/03/19 02:53:32;;;;;;;;;;;;;;;;;;4877008;29;19981;-56
2024/03/19 02:55:58;;;;;;;;;;;;;;;;;;4883303;29;20257;-56
2024/03/19 02:58:24;;;;;;;;;;;;;;;;;;4882794;29;19954;-56
2024/03/19 03:00:52;;;;;;;;;;;;;;;;;;4879606;29;19973;-56
2024/03/19 03:03:18;;;;;;;;;;;;;;;;;;4877907;29;19916;-56
2024/03/19 03:05:47;;;;;;;;;;;;;;;;;;4876277;29;19912;-56
2024/03/19 03:08:13;;;;;;;;;;;;;;;;;;4878667;29;19919;-56
2024/03/19 03:10:39;;;;;;;;;;;;;;;;;;4876721;29;19933;-56
2024/03/19 03:13:05;;;;;;;;;;;;;;;;;;4876609;29;19951;-56
2024/03/19 03:15:31;;;;;;;;;;;;;;;;;;4877905;29;19951;-56
2024/03/19 03:17:57;;;;;;;;;;;;;;;;;;4875866;29;19955;-56
2024/03/19 03:20:23;;;;;;;;;;;;;;;;;;4876916;29;19959;-56
2024/03/19 03:22:49;;;;;;;;;;;;;;;;;;4877939;29;20289;-56
2024/03/19 03:25:15;;;;;;;;;;;;;;;;;;4877930;29;20420;-56
2024/03/19 03:27:41;;;;;;;;;;;;;;;;;;4875986;29;19969;-56
2024/03/19 03:30:10;;;;;;;;;;;;;;;;;;4883603;29;19955;-56
2024/03/19 03:32:36;;;;;;;;;;;;;;;;;;4876891;29;19922;-54
2024/03/19 03:35:03;;;;;;;;;;;;;;;;;;4879235;29;20304;-53
2024/03/19 03:37:29;;;;;;;;;;;;;;;;;;4884790;29;19922;-52
2024/03/19 03:39:56;;;;;;;;;;;;;;;;;;4876303;29;19990;-52
2024/03/19 03:42:22;;;;;;;;;;;;;;;;;;4876991;29;19923;-53
2024/03/19 03:44:48;;;;;;;;;;;;;;;;;;4876171;29;19971;-53
2024/03/19 03:47:14;;;;;;;;;;;;;;;;;;4877387;29;19951;-52
2024/03/19 03:49:40;;;;;;;;;;;;;;;;;;4876134;29;19978;-53
2024/03/19 03:52:07;;;;;;;;;;;;;;;;;;4878010;29;19916;-52
2024/03/19 03:54:33;;;;;;;;;;;;;;;;;;4882990;29;20010;-52
2024/03/19 03:56:59;;;;;;;;;;;;;;;;;;4876491;29;20059;-54
2024/03/19 03:59:25;;;;;;;;;;;;;;;;;;4880787;29;19912;-52
2024/03/19 04:01:51;;;;;;;;;;;;;;;;;;4876366;29;19961;-53
2024/03/19 04:04:17;;;;;;;;;;;;;;;;;;4874640;29;19932;-53
2024/03/19 04:06:43;;;;;;;;;;;;;;;;;;4873675;29;20336;-53
2024/03/19 04:09:10;;;;;;;;;;;;;;;;;;4871782;29;20448;-54
2024/03/19 04:11:36;;;;;;;;;;;;;;;;;;4880093;29;20000;-52
2024/03/19 04:14:01;;;;;;;;;;;;;;;;;;4876606;29;19958;-54
2024/03/19 04:16:27;;;;;;;;;;;;;;;;;;4875837;29;19984;-54
2024/03/19 04:18:53;;;;;;;;;;;;;;;;;;4876295;29;20456;-56
2024/03/19 04:21:21;;;;;;;;;;;;;;;;;;4876225;29;20410;-56
2024/03/19 04:23:47;;;;;;;;;;;;;;;;;;4884450;29;19923;-59
2024/03/19 04:26:13;;;;;;;;;;;;;;;;;;4881129;29;19959;-59
2024/03/19 04:28:39;;;;;;;;;;;;;;;;;;4875351;29;19974;-58
2024/03/19 04:31:05;;;;;;;;;;;;;;;;;;4879257;29;19958;-59
2024/03/19 04:33:31;;;;;;;;;;;;;;;;;;4877663;29;20269;-60
2024/03/19 04:35:57;;;;;;;;;;;;;;;;;;4876411;29;19922;-59
2024/03/19 04:38:23;;;;;;;;;;;;;;;;;;4878863;29;19955;-59
2024/03/19 04:40:49;;;;;;;;;;;;;;;;;;4875811;29;19959;-60
2024/03/19 04:43:15;;;;;;;;;;;;;;;;;;4876351;29;20002;-51
2024/03/19 04:45:41;;;;;;;;;;;;;;;;;;4876609;29;19947;-52
2024/03/19 04:48:07;;;;;;;;;;;;;;;;;;4876076;29;19915;-53
2024/03/19 04:50:33;;;;;;;;;;;;;;;;;;4876652;29;19922;-52
2024/03/19 04:52:59;;;;;;;;;;;;;;;;;;4875961;29;20499;-54
2024/03/19 04:55:25;;;;;;;;;;;;;;;;;;4875264;29;20525;-52
2024/03/19 04:57:51;;;;;;;;;;;;;;;;;;4876336;29;20799;-53
2024/03/19 05:00:17;;;;;;;;;;;;;;;;;;4876256;29;19947;-52
2024/03/19 05:02:44;;;;;;;;;;;;;;;;;;4873606;29;20375;-52
2024/03/19 05:05:10;;;;;;;;;;;;;;;;;;4873790;29;19920;-52
2024/03/19 05:07:36;;;;;;;;;;;;;;;;;;4875525;29;20352;-53
2024/03/19 05:10:02;;;;;;;;;;;;;;;;;;4884599;29;19974;-51
2024/03/19 05:12:28;;;;;;;;;;;;;;;;;;4875212;29;19919;-52
2024/03/19 05:14:54;;;;;;;;;;;;;;;;;;4875872;29;20321;-52
2024/03/19 05:17:20;;;;;;;;;;;;;;;;;;4873820;29;20389;-52
2024/03/19 05:19:46;;;;;;;;;;;;;;;;;;4872119;29;19980;-52
2024/03/19 05:22:12;;;;;;;;;;;;;;;;;;4872752;29;19970;-53
2024/03/19 05:24:38;;;;;;;;;;;;;;;;;;4872368;29;20057;-53
2024/03/19 05:27:04;;;;;;;;;;;;;;;;;;4877295;29;20062;-52
2024/03/19 05:29:32;;;;;;;;;;;;;;;;;;4875438;29;19955;-54
2024/03/19 05:31:58;;;;;;;;;;;;;;;;;;4873546;29;20018;-54
2024/03/19 05:34:24;;;;;;;;;;;;;;;;;;4875969;29;20343;-53
2024/03/19 05:36:50;;;;;;;;;;;;;;;;;;4874337;29;19958;-52
2024/03/19 05:39:16;;;;;;;;;;;;;;;;;;4872834;29;20391;-54
2024/03/19 05:41:42;;;;;;;;;;;;;;;;;;4872640;29;19920;-54
2024/03/19 05:44:09;;;;;;;;;;;;;;;;;;4874985;29;19926;-53
2024/03/19 05:46:35;;;;;;;;;;;;;;;;;;4877685;29;19936;-53
2024/03/19 05:49:04;;;;;;;;;;;;;;;;;;4869630;29;20386;-53
2024/03/19 05:51:30;;;;;;;;;;;;;;;;;;4881313;29;19916;-53
2024/03/19 05:53:56;;;;;;;;;;;;;;;;;;4881942;29;19922;-55
2024/03/19 05:56:23;;;;;;;;;;;;;;;;;;4880254;29;19943;-55
2024/03/19 05:58:49;;;;;;;;;;;;;;;;;;4874928;29;20041;-56
2024/03/19 06:01:15;;;;;;;;;;;;;;;;;;4878614;29;20470;-56
2024/03/19 06:03:40;;;;;;;;;;;;;;;;;;4880568;29;19946;-56
2024/03/19 06:06:10;;;;;;;;;;;;;;;;;;4882410;29;20012;-55
2024/03/19 06:08:36;;;;;;;;;;;;;;;;;;4878712;29;20352;-56
2024/03/19 06:11:02;;;;;;;;;;;;;;;;;;4885800;29;20382;-55
2024/03/19 06:13:28;;;;;;;;;;;;;;;;;;4887004;29;20007;-60
2024/03/19 06:15:54;;;;;;;;;;;;;;;;;;4888987;29;19998;-55
2024/03/19 06:18:21;;;;;;;;;;;;;;;;;;4883071;29;20332;-55
2024/03/19 06:20:47;;;;;;;;;;;;;;;;;;4877856;29;19916;-56
2024/03/19 06:23:13;;;;;;;;;;;;;;;;;;4882654;29;19930;-56
2024/03/19 06:25:39;;;;;;;;;;;;;;;;;;4880928;29;19974;-55
2024/03/19 06:28:05;;;;;;;;;;;;;;;;;;4884010;29;20389;-55
2024/03/19 06:30:31;;;;;;;;;;;;;;;;;;4888737;29;19971;-55
2024/03/19 06:32:58;;;;;;;;;;;;;;;;;;4889721;29;19951;-55
2024/03/19 06:35:23;;;;;;;;;;;;;;;;;;4880067;29;20011;-55
2024/03/19 06:37:49;;;;;;;;;;;;;;;;;;4885094;29;20002;-55
2024/03/19 06:40:17;;;;;;;;;;;;;;;;;;4882949;29;20032;-55
2024/03/19 06:42:43;;;;;;;;;;;;;;;;;;4878747;29;20415;-60
2024/03/19 06:45:09;;;;;;;;;;;;;;;;;;4885698;29;19915;-59
2024/03/19 06:47:35;;;;;;;;;;;;;;;;;;4892546;29;21381;-60
2024/03/19 06:50:06;;;;;;;;;;;;;;;;;;4880304;29;19951;-60
2024/03/19 06:52:32;;;;;;;;;;;;;;;;;;4879357;29;20002;-60
2024/03/19 06:54:58;;;;;;;;;;;;;;;;;;4870740;29;20035;-60
2024/03/19 06:57:24;;;;;;;;;;;;;;;;;;4874118;29;19961;-59
2024/03/19 06:59:49;;;;;;;;;;;;;;;;;;4879784;29;19957;-60
2024/03/19 07:02:18;;;;;;;;;;;;;;;;;;4891853;29;19974;-55
2024/03/19 07:04:44;;;;;;;;;;;;;;;;;;4878130;29;19937;-61
2024/03/19 07:07:13;;;;;;;;;;;;;;;;;;4879882;29;19976;-62
2024/03/19 07:09:40;;;;;;;;;;;;;;;;;;4884450;29;19912;-60
2024/03/19 07:12:06;;;;;;;;;;;;;;;;;;4875005;29;19912;-59
2024/03/19 07:14:31;;;;;;;;;;;;;;;;;;4879140;29;19915;-61
2024/03/19 07:16:57;;;;;;;;;;;;;;;;;;4877865;29;20015;-61
2024/03/19 07:19:23;;;;;;;;;;;;;;;;;;4876550;29;20042;-61
2024/03/19 07:21:49;;;;;;;;;;;;;;;;;;4877509;29;20027;-60
2024/03/19 07:24:16;;;;;;;;;;;;;;;;;;4881581;29;19955;-61
2024/03/19 07:26:42;;;;;;;;;;;;;;;;;;4878340;29;19919;-61
2024/03/19 07:29:08;;;;;;;;;;;;;;;;;;4884115;29;19918;-61
2024/03/19 07:31:36;;;;;;;;;;;;;;;;;;4877901;29;20283;-61
2024/03/19 07:34:02;;;;;;;;;;;;;;;;;;4876745;29;19908;-61
2024/03/19 07:36:28;;;;;;;;;;;;;;;;;;4877995;29;19962;-61
2024/03/19 07:38:54;;;;;;;;;;;;;;;;;;4878912;29;19939;-62
2024/03/19 07:41:20;;;;;;;;;;;;;;;;;;4878745;29;19982;-61
2024/03/19 07:43:46;;;;;;;;;;;;;;;;;;4879707;29;19919;-61
2024/03/19 07:46:12;;;;;;;;;;;;;;;;;;4881141;29;19955;-61
2024/03/19 07:48:39;;;;;;;;;;;;;;;;;;4879965;29;19954;-61
2024/03/19 07:51:05;;;;;;;;;;;;;;;;;;4873865;29;19933;-60
2024/03/19 07:53:31;;;;;;;;;;;;;;;;;;4887781;29;19919;-56
2024/03/19 07:55:58;;;;;;;;;;;;;;;;;;4881129;29;19919;-56
2024/03/19 07:58:24;;;;;;;;;;;;;;;;;;4875988;29;19962;-56
2024/03/19 08:00:50;;;;;;;;;;;;;;;;;;4863141;29;20427;-56
2024/03/19 08:03:17;;;;;;;;;;;;;;;;;;4871196;29;20415;-56
2024/03/19 08:05:43;;;;;;;;;;;;;;;;;;4868418;29;20818;-56
2024/03/19 08:08:09;;;;;;;;;;;;;;;;;;4868944;29;19961;-56
2024/03/19 08:10:35;;;;;;;;;;;;;;;;;;4866379;29;20407;-56
2024/03/19 08:13:01;;;;;;;;;;;;;;;;;;4866001;29;19976;-55
2024/03/19 08:15:26;;;;;;;;;;;;;;;;;;4867802;29;20650;-53
2024/03/19 08:17:54;;;;;;;;;;;;;;;;;;4869273;29;19974;-52
2024/03/19 08:20:20;;;;;;;;;;;;;;;;;;4871426;29;19907;-55
2024/03/19 08:22:46;;;;;;;;;;;;;;;;;;4866508;29;19919;-53
2024/03/19 08:25:13;;;;;;;;;;;;;;;;;;4866478;29;19919;-53
2024/03/19 08:27:39;;;;;;;;;;;;;;;;;;4868614;29;19920;-55
2024/03/19 08:30:06;;;;;;;;;;;;;;;;;;4873028;29;19960;-54
2024/03/19 08:32:32;;;;;;;;;;;;;;;;;;4871770;29;20546;-53
2024/03/19 08:34:57;;;;;;;;;;;;;;;;;;4878096;29;19912;-53
2024/03/19 08:37:23;;;;;;;;;;;;;;;;;;4873396;29;19912;-53
2024/03/19 08:39:49;;;;;;;;;;;;;;;;;;4866508;29;19951;-53
2024/03/19 08:42:15;;;;;;;;;;;;;;;;;;4866774;29;19950;-54
2024/03/19 08:44:42;;;;;;;;;;;;;;;;;;4872148;29;19961;-52
2024/03/19 08:47:08;;;;;;;;;;;;;;;;;;4873447;29;19920;-54
2024/03/19 08:49:34;;;;;;;;;;;;;;;;;;4869277;29;19958;-53
2024/03/19 08:52:00;;;;;;;;;;;;;;;;;;4863251;29;19958;-52
2024/03/19 08:54:26;;;;;;;;;;;;;;;;;;4869014;29;19959;-52
2024/03/19 08:56:52;;;;;;;;;;;;;;;;;;4870552;29;19916;-53
2024/03/19 08:59:18;;;;;;;;;;;;;;;;;;4873350;29;19915;-52
2024/03/19 09:01:44;;;;;;;;;;;;;;;;;;4870677;29;19963;-52
2024/03/19 09:04:10;;;;;;;;;;;;;;;;;;4870487;29;19966;-61
2024/03/19 09:06:36;;;;;;;;;;;;;;;;;;4868128;29;19915;-58
2024/03/19 09:09:02;;;;;;;;;;;;;;;;;;4872770;29;19963;-61
2024/03/19 09:11:32;;;;;;;;;;;;;;;;;;4873467;29;20003;-61
2024/03/19 09:13:58;;;;;;;;;;;;;;;;;;4874845;29;19912;-60
2024/03/19 09:16:24;;;;;;;;;;;;;;;;;;4875588;29;20002;-60
2024/03/19 09:18:50;;;;;;;;;;;;;;;;;;4875336;29;19962;-58
2024/03/19 09:21:16;;;;;;;;;;;;;;;;;;4877035;29;20379;-61
2024/03/19 09:23:42;;;;;;;;;;;;;;;;;;4875621;29;20411;-58
2024/03/19 09:26:08;;;;;;;;;;;;;;;;;;4875449;29;20021;-58
2024/03/19 09:28:34;;;;;;;;;;;;;;;;;;4875863;29;20035;-58
2024/03/19 09:31:00;;;;;;;;;;;;;;;;;;4878240;29;20336;-58
2024/03/19 09:33:26;;;;;;;;;;;;;;;;;;4878302;29;19912;-54
2024/03/19 09:35:52;;;;;;;;;;;;;;;;;;4871125;29;20361;-58
2024/03/19 09:38:19;;;;;;;;;;;;;;;;;;4874281;29;20003;-57
2024/03/19 09:40:45;;;;;;;;;;;;;;;;;;4874711;29;20365;-57
2024/03/19 09:43:11;;;;;;;;;;;;;;;;;;4877643;29;19971;-54
2024/03/19 09:45:37;;;;;;;;;;;;;;;;;;4879446;29;20018;-54
2024/03/19 09:48:03;;;;;;;;;;;;;;;;;;4883179;29;19985;-52
2024/03/19 09:50:29;;;;;;;;;;;;;;;;;;4883623;29;20419;-52
2024/03/19 09:52:57;;;;;;;;;;;;;;;;;;4879741;29;20051;-52
2024/03/19 09:55:25;;;;;;;;;;;;;;;;;;4883180;29;19920;-55
2024/03/19 09:57:52;;;;;;;;;;;;;;;;;;4884223;29;19962;-54
2024/03/19 10:00:17;;;;;;;;;;;;;;;;;;4883475;29;20361;-55
2024/03/19 10:02:43;;;;;;;;;;;;;;;;;;4886206;29;19922;-54
2024/03/19 10:05:09;;;;;;;;;;;;;;;;;;4883040;29;19947;-54
2024/03/19 10:07:35;;;;;;;;;;;;;;;;;;4881316;29;19961;-55
2024/03/19 10:10:01;;;;;;;;;;;;;;;;;;4882770;29;19970;-55
2024/03/19 10:12:27;;;;;;;;;;;;;;;;;;4888140;29;19958;-53
2024/03/19 10:14:54;;;;;;;;;;;;;;;;;;4889359;29;19988;-54
2024/03/19 10:17:21;;;;;;;;;;;;;;;;;;4886483;29;19970;-53
2024/03/19 10:19:47;;;;;;;;;;;;;;;;;;4886147;29;19920;-53
2024/03/19 10:22:12;;;;;;;;;;;;;;;;;;4879205;29;19977;-54
2024/03/19 10:24:38;;;;;;;;;;;;;;;;;;4881448;29;19958;-53
2024/03/19 10:27:04;;;;;;;;;;;;;;;;;;4883163;29;19959;-52
2024/03/19 10:29:30;;;;;;;;;;;;;;;;;;4886286;29;20409;-52
2024/03/19 10:31:57;;;;;;;;;;;;;;;;;;4879641;29;19923;-55
2024/03/19 10:34:23;;;;;;;;;;;;;;;;;;4882855;29;20026;-54
2024/03/19 10:36:49;;;;;;;;;;;;;;;;;;4880514;29;20006;-53
2024/03/19 10:39:15;;;;;;;;;;;;;;;;;;4884191;29;19950;-57
2024/03/19 10:41:41;;;;;;;;;;;;;;;;;;4882551;29;19991;-56
2024/03/19 10:44:07;;;;;;;;;;;;;;;;;;4881275;29;20216;-56
2024/03/19 10:46:33;;;;;;;;;;;;;;;;;;4881454;29;20023;-55
2024/03/19 10:48:59;;;;;;;;;;;;;;;;;;4885883;29;19967;-55
2024/03/19 10:51:25;;;;;;;;;;;;;;;;;;4879886;29;19912;-56
2024/03/19 10:53:51;;;;;;;;;;;;;;;;;;4883179;29;19970;-58
2024/03/19 10:56:17;;;;;;;;;;;;;;;;;;4881304;29;19976;-56
2024/03/19 10:58:45;;;;;;;;;;;;;;;;;;4879065;29;19969;-56
2024/03/19 11:01:11;;;;;;;;;;;;;;;;;;4881085;29;19916;-57
2024/03/19 11:03:37;;;;;;;;;;;;;;;;;;4876952;29;19957;-58
2024/03/19 11:06:08;;;;;;;;;;;;;;;;;;4877796;29;19965;-58
2024/03/19 11:08:34;;;;;;;;;;;;;;;;;;4880419;29;19916;-58
2024/03/19 11:11:00;;;;;;;;;;;;;;;;;;4878568;29;20332;-58
2024/03/19 11:13:26;;;;;;;;;;;;;;;;;;4885848;29;20375;-58
2024/03/19 11:15:52;;;;;;;;;;;;;;;;;;4883014;29;19959;-57
2024/03/19 11:18:18;;;;;;;;;;;;;;;;;;4877334;29;19974;-58
2024/03/19 11:20:45;;;;;;;;;;;;;;;;;;4872526;29;19994;-58
2024/03/19 11:23:10;;;;;;;;;;;;;;;;;;4878423;29;19968;-58
2024/03/19 11:25:36;;;;;;;;;;;;;;;;;;4875293;29;20380;-58
2024/03/19 11:28:02;;;;;;;;;;;;;;;;;;4884757;29;20406;-58
2024/03/19 11:30:28;;;;;;;;;;;;;;;;;;4877608;29;19962;-58
2024/03/19 11:32:54;;;;;;;;;;;;;;;;;;4885982;29;19951;-58
2024/03/19 11:35:20;;;;;;;;;;;;;;;;;;4878218;29;19943;-58
2024/03/19 11:37:46;;;;;;;;;;;;;;;;;;4883706;29;19912;-58
2024/03/19 11:40:12;;;;;;;;;;;;;;;;;;4877154;29;19967;-58
2024/03/19 11:42:38;;;;;;;;;;;;;;;;;;4875445;29;19965;-56
2024/03/19 11:45:04;;;;;;;;;;;;;;;;;;4877789;29;19954;-58
2024/03/19 11:47:30;;;;;;;;;;;;;;;;;;4886357;29;19988;-59
2024/03/19 11:49:56;;;;;;;;;;;;;;;;;;4877186;29;20003;-56
2024/03/19 11:52:22;;;;;;;;;;;;;;;;;;4877781;29;19958;-57
2024/03/19 11:54:48;;;;;;;;;;;;;;;;;;4880710;29;20389;-56
2024/03/19 11:57:14;;;;;;;;;;;;;;;;;;4881775;29;19946;-56
2024/03/19 11:59:39;;;;;;;;;;;;;;;;;;4877177;29;20404;-56
2024/03/19 12:02:05;;;;;;;;;;;;;;;;;;4877842;29;20376;-56
2024/03/19 12:04:32;;;;;;;;;;;;;;;;;;4877145;29;20214;-58
2024/03/19 12:06:57;;;;;;;;;;;;;;;;;;4879150;29;20292;-56
2024/03/19 12:09:25;;;;;;;;;;;;;;;;;;4881567;29;19955;-56
2024/03/19 12:11:51;;;;;;;;;;;;;;;;;;4878700;29;19981;-56
2024/03/19 12:14:17;;;;;;;;;;;;;;;;;;4877105;29;20005;-56
2024/03/19 12:16:43;;;;;;;;;;;;;;;;;;4880724;29;19976;-56
2024/03/19 12:19:09;;;;;;;;;;;;;;;;;;4878502;29;19986;-56
2024/03/19 12:21:35;;;;;;;;;;;;;;;;;;4876521;29;20368;-56
2024/03/19 12:24:01;;;;;;;;;;;;;;;;;;4875973;29;20390;-56
2024/03/19 12:26:27;;;;;;;;;;;;;;;;;;4883738;29;19959;-56
2024/03/19 12:28:54;;;;;;;;;;;;;;;;;;4877549;29;19949;-56
2024/03/19 12:31:24;;;;;;;;;;;;;;;;;;4877091;29;19912;-57
2024/03/19 12:34:05;;;;;;;;;;;;;;;;;;4880982;29;19922;-57
2024/03/19 12:36:31;;;;;;;;;;;;;;;;;;4877543;29;20130;-55
2024/03/19 12:38:57;;;;;;;;;;;;;;;;;;4881106;29;19991;-56
2024/03/19 12:41:23;;;;;;;;;;;;;;;;;;4878325;29;20022;-56
2024/03/19 12:43:49;;;;;;;;;;;;;;;;;;4875774;29;19958;-55
2024/03/19 12:46:15;;;;;;;;;;;;;;;;;;4869501;29;20006;-55
2024/03/19 12:48:41;;;;;;;;;;;;;;;;;;4877890;29;19958;-56
2024/03/19 12:51:07;;;;;;;;;;;;;;;;;;4876913;29;19955;-56
2024/03/19 12:53:33;;;;;;;;;;;;;;;;;;4876467;29;20439;-56
2024/03/19 12:56:00;;;;;;;;;;;;;;;;;;4877203;29;19951;-57
2024/03/19 12:58:28;;;;;;;;;;;;;;;;;;4878932;29;20279;-55
2024/03/19 13:00:54;;;;;;;;;;;;;;;;;;4873393;29;20320;-55
2024/03/19 13:03:20;;;;;;;;;;;;;;;;;;4876040;29;19940;-56
2024/03/19 13:05:45;;;;;;;;;;;;;;;;;;4879540;29;19969;-58
2024/03/19 13:08:11;;;;;;;;;;;;;;;;;;4870317;29;20333;-58
2024/03/19 13:10:37;;;;;;;;;;;;;;;;;;4875823;29;19961;-58
2024/03/19 13:13:03;;;;;;;;;;;;;;;;;;4882212;29;19959;-58
2024/03/19 13:15:29;;;;;;;;;;;;;;;;;;4879358;29;20323;-57
2024/03/19 13:17:55;;;;;;;;;;;;;;;;;;4882346;29;19968;-58
2024/03/19 13:20:21;;;;;;;;;;;;;;;;;;4873767;29;19946;-58
2024/03/19 13:22:47;;;;;;;;;;;;;;;;;;4876945;29;19919;-57
2024/03/19 13:25:13;;;;;;;;;;;;;;;;;;4876007;29;20015;-57
2024/03/19 13:27:39;;;;;;;;;;;;;;;;;;4874768;29;19970;-58
2024/03/19 13:30:05;;;;;;;;;;;;;;;;;;4870183;29;20626;-58
2024/03/19 13:32:31;;;;;;;;;;;;;;;;;;4878224;29;19916;-57
2024/03/19 13:34:57;;;;;;;;;;;;;;;;;;4873286;29;20324;-56
2024/03/19 13:37:23;;;;;;;;;;;;;;;;;;4873794;29;19916;-57
2024/03/19 13:39:49;;;;;;;;;;;;;;;;;;4874249;29;19912;-57
2024/03/19 13:42:15;;;;;;;;;;;;;;;;;;4876046;29;19915;-57
2024/03/19 13:44:41;;;;;;;;;;;;;;;;;;4875735;29;20380;-53
2024/03/19 13:47:08;;;;;;;;;;;;;;;;;;4875568;29;19912;-54
2024/03/19 13:49:34;;;;;;;;;;;;;;;;;;4875244;29;19912;-55
2024/03/19 13:52:00;;;;;;;;;;;;;;;;;;4873875;29;20384;-53
2024/03/19 13:54:28;;;;;;;;;;;;;;;;;;4876946;29;19916;-56
2024/03/19 13:56:54;;;;;;;;;;;;;;;;;;4875335;29;20415;-53
2024/03/19 13:59:20;;;;;;;;;;;;;;;;;;4874255;29;20011;-54
2024/03/19 14:01:46;;;;;;;;;;;;;;;;;;4876071;29;20026;-55
2024/03/19 14:04:12;;;;;;;;;;;;;;;;;;4873706;29;19923;-56
2024/03/19 14:06:38;;;;;;;;;;;;;;;;;;4876934;29;19919;-55
2024/03/19 14:09:05;;;;;;;;;;;;;;;;;;4876853;29;19954;-54
2024/03/19 14:11:31;;;;;;;;;;;;;;;;;;4872293;29;19924;-53
2024/03/19 14:13:57;;;;;;;;;;;;;;;;;;4875184;29;19943;-55
2024/03/19 14:16:23;;;;;;;;;;;;;;;;;;4885397;29;19959;-56
2024/03/19 14:18:49;;;;;;;;;;;;;;;;;;4875991;29;19950;-56
2024/03/19 14:21:15;;;;;;;;;;;;;;;;;;4875056;29;19933;-56
2024/03/19 14:23:41;;;;;;;;;;;;;;;;;;4871038;29;20014;-56
2024/03/19 14:26:10;;;;;;;;;;;;;;;;;;4866981;29;19955;-56
2024/03/19 14:28:36;;;;;;;;;;;;;;;;;;4873241;29;19930;-56
2024/03/19 14:31:02;;;;;;;;;;;;;;;;;;4881327;29;19919;-57
2024/03/19 14:33:28;;;;;;;;;;;;;;;;;;4877243;29;19915;-56
2024/03/19 14:35:54;;;;;;;;;;;;;;;;;;4882262;29;19947;-57
2024/03/19 14:38:20;;;;;;;;;;;;;;;;;;4880675;29;19942;-56
2024/03/19 14:40:46;;;;;;;;;;;;;;;;;;4875721;29;19950;-56
2024/03/19 14:43:12;;;;;;;;;;;;;;;;;;4879120;29;19986;-56
2024/03/19 14:45:38;;;;;;;;;;;;;;;;;;4879632;29;19924;-56
2024/03/19 14:48:04;;;;;;;;;;;;;;;;;;4887349;29;20011;-56
2024/03/19 14:50:30;;;;;;;;;;;;;;;;;;4893364;29;19992;-56
2024/03/19 14:52:56;;;;;;;;;;;;;;;;;;4878856;29;20664;-56
2024/03/19 14:55:22;;;;;;;;;;;;;;;;;;4887939;29;19965;-58
2024/03/19 14:57:48;;;;;;;;;;;;;;;;;;4885319;29;19911;-58
2024/03/19 15:00:14;;;;;;;;;;;;;;;;;;4879117;29;20023;-57
2024/03/19 15:02:40;;;;;;;;;;;;;;;;;;4879799;29;19949;-58
2024/03/19 15:05:07;;;;;;;;;;;;;;;;;;4876141;29;20549;-61
2024/03/19 15:07:33;;;;;;;;;;;;;;;;;;4883551;29;20371;-61
2024/03/19 15:09:59;;;;;;;;;;;;;;;;;;4876997;29;19971;-62
2024/03/19 15:12:24;;;;;;;;;;;;;;;;;;4879068;29;20015;-61
2024/03/19 15:14:50;;;;;;;;;;;;;;;;;;4883467;29;19954;-61
2024/03/19 15:17:16;;;;;;;;;;;;;;;;;;4878881;29;19963;-60
2024/03/19 15:19:44;;;;;;;;;;;;;;;;;;4882069;29;19924;-59
2024/03/19 15:22:11;;;;;;;;;;;;;;;;;;4884966;29;19924;-61
2024/03/19 15:24:37;;;;;;;;;;;;;;;;;;4880195;29;19946;-61
2024/03/19 15:27:04;;;;;;;;;;;;;;;;;;4881482;29;20460;-61
2024/03/19 15:29:30;;;;;;;;;;;;;;;;;;4866513;29;19912;-61
2024/03/19 15:31:56;;;;;;;;;;;;;;;;;;4868434;29;19923;-60
2024/03/19 15:34:23;;;;;;;;;;;;;;;;;;4861379;29;19912;-61
2024/03/19 15:36:49;;;;;;;;;;;;;;;;;;4865508;29;19941;-60
2024/03/19 15:39:15;;;;;;;;;;;;;;;;;;4861577;29;20000;-61
2024/03/19 15:41:41;;;;;;;;;;;;;;;;;;4869203;29;19939;-60
2024/03/19 15:44:09;;;;;;;;;;;;;;;;;;4867190;29;19915;-61
2024/03/19 15:46:36;;;;;;;;;;;;;;;;;;4871200;29;19919;-61
2024/03/19 15:49:02;;;;;;;;;;;;;;;;;;4863443;29;19920;-61
2024/03/19 15:51:28;;;;;;;;;;;;;;;;;;4871391;29;20353;-59
2024/03/19 15:53:53;;;;;;;;;;;;;;;;;;4866714;29;19915;-61
2024/03/19 15:56:19;;;;;;;;;;;;;;;;;;4867573;29;19911;-63
2024/03/19 15:58:46;;;;;;;;;;;;;;;;;;4865815;29;19998;-58
2024/03/19 16:01:12;;;;;;;;;;;;;;;;;;4871400;29;19919;-61
2024/03/19 16:03:38;;;;;;;;;;;;;;;;;;4879854;29;19978;-60
2024/03/19 16:06:05;;;;;;;;;;;;;;;;;;4882405;29;20456;-55
2024/03/19 16:08:31;;;;;;;;;;;;;;;;;;4882941;29;19939;-55
2024/03/19 16:10:58;;;;;;;;;;;;;;;;;;4885730;29;19995;-55
2024/03/19 16:13:24;;;;;;;;;;;;;;;;;;4885706;29;19986;-56
2024/03/19 16:15:53;;;;;;;;;;;;;;;;;;4878985;29;20460;-58
2024/03/19 16:18:19;;;;;;;;;;;;;;;;;;4876930;29;19996;-58
2024/03/19 16:20:46;;;;;;;;;;;;;;;;;;4882370;29;19975;-56
2024/03/19 16:23:12;;;;;;;;;;;;;;;;;;4894743;29;19919;-56
2024/03/19 16:25:37;;;;;;;;;;;;;;;;;;4875492;29;19963;-55
2024/03/19 16:28:03;;;;;;;;;;;;;;;;;;4868954;29;19971;-56
2024/03/19 16:30:29;;;;;;;;;;;;;;;;;;4871276;29;19963;-55
2024/03/19 16:32:56;;;;;;;;;;;;;;;;;;4873926;29;19984;-59
2024/03/19 16:35:21;;;;;;;;;;;;;;;;;;4870315;29;20428;-58
2024/03/19 16:37:48;;;;;;;;;;;;;;;;;;4868175;29;19971;-59